createdAt,value
2023-05-14T00:02:19.182Z,21.92
2023-05-14T00:04:48.188Z,21.90
2023-05-14T00:07:19.812Z,21.93
2023-05-14T00:09:51.654Z,21.89
2023-05-14T00:12:20.658Z,21.81
2023-05-14T00:14:49.864Z,21.88
2023-05-14T00:17:18.986Z,21.90
2023-05-14T00:19:54.905Z,22.00
2023-05-14T00:22:23.893Z,22.09
2023-05-14T00:24:52.792Z,22.00
2023-05-14T00:27:23.904Z,21.94
2023-05-14T00:29:52.942Z,22.08
2023-05-14T00:32:22.083Z,22.05
2023-05-14T00:34:51.047Z,22.06
2023-05-14T00:37:20.096Z,22.04
2023-05-14T00:39:49.245Z,22.06
2023-05-14T00:42:18.226Z,22.06
2023-05-14T00:44:47.229Z,22.07
2023-05-14T00:47:19.450Z,21.99
2023-05-14T00:49:48.556Z,22.14
2023-05-14T00:52:17.493Z,22.15
2023-05-14T00:54:49.616Z,22.12
2023-05-14T00:57:21.473Z,22.10
2023-05-14T00:59:50.425Z,22.24
2023-05-14T01:02:19.387Z,22.16
2023-05-14T01:04:48.472Z,22.24
2023-05-14T01:07:52.641Z,22.46
2023-05-14T01:10:29.201Z,22.63
2023-05-14T01:13:16.452Z,22.61
2023-05-14T01:15:45.524Z,22.74
2023-05-14T01:18:15.759Z,22.78
2023-05-14T01:20:46.243Z,22.87
2023-05-14T01:23:15.347Z,22.95
2023-05-14T01:25:47.020Z,23.12
2023-05-14T01:28:22.972Z,23.08
2023-05-14T01:30:52.165Z,23.22
2023-05-14T01:33:21.185Z,23.35
2023-05-14T01:35:50.578Z,23.18
2023-05-14T01:38:20.226Z,23.34
2023-05-14T01:40:49.721Z,23.54
2023-05-14T01:43:18.983Z,23.59
2023-05-14T01:45:48.263Z,23.41
2023-05-14T01:48:20.174Z,23.40
2023-05-14T01:50:49.181Z,23.43
2023-05-14T01:53:21.204Z,23.37
2023-05-14T01:55:52.363Z,23.57
2023-05-14T01:58:21.552Z,23.66
2023-05-14T02:00:50.538Z,23.51
2023-05-14T02:03:19.537Z,23.57
2023-05-14T02:05:48.485Z,23.55
2023-05-14T02:08:23.917Z,23.63
2023-05-14T02:10:52.979Z,23.52
2023-05-14T02:13:22.047Z,23.45
2023-05-14T02:15:51.683Z,23.51
2023-05-14T02:18:20.713Z,23.49
2023-05-14T02:20:49.741Z,23.58
2023-05-14T02:23:19.487Z,23.60
2023-05-14T02:25:49.560Z,23.62
2023-05-14T02:28:18.578Z,23.61
2023-05-14T02:30:50.641Z,23.75
2023-05-14T02:33:19.759Z,23.62
2023-05-14T02:35:51.281Z,23.63
2023-05-14T02:38:22.950Z,23.64
2023-05-14T02:41:00.933Z,23.44
2023-05-14T02:43:29.898Z,23.54
2023-05-14T02:45:58.928Z,23.64
2023-05-14T02:48:28.095Z,23.41
2023-05-14T02:50:57.183Z,23.52
2023-05-14T02:53:26.125Z,23.72
2023-05-14T02:55:55.209Z,23.77
2023-05-14T02:58:27.708Z,23.83
2023-05-14T03:00:57.668Z,23.59
2023-05-14T03:03:27.592Z,23.64
2023-05-14T03:05:57.526Z,23.65
2023-05-14T03:08:29.497Z,23.69
2023-05-14T03:10:58.560Z,23.79
2023-05-14T03:13:27.616Z,23.85
2023-05-14T03:15:56.762Z,23.69
2023-05-14T03:18:25.907Z,23.89
2023-05-14T03:20:57.674Z,23.97
2023-05-14T03:23:26.708Z,23.92
2023-05-14T03:25:55.778Z,24.03
2023-05-14T03:28:24.704Z,24.01
2023-05-14T03:30:53.988Z,24.03
2023-05-14T03:33:23.402Z,24.05
2023-05-14T03:36:01.147Z,23.92
2023-05-14T03:38:30.099Z,23.77
2023-05-14T03:40:59.631Z,23.86
2023-05-14T03:43:31.156Z,24.05
2023-05-14T03:46:00.450Z,23.94
2023-05-14T03:48:29.624Z,24.03
2023-05-14T03:50:58.657Z,24.01
2023-05-14T03:53:27.728Z,24.06
2023-05-14T03:55:56.949Z,24.11
2023-05-14T03:58:25.972Z,24.10
2023-05-14T04:00:57.749Z,24.21
2023-05-14T04:03:30.435Z,24.19
2023-05-14T04:06:02.372Z,24.35
2023-05-14T04:08:33.388Z,24.54
2023-05-14T04:11:02.402Z,24.59
2023-05-14T04:13:33.076Z,24.60
2023-05-14T04:16:06.842Z,24.33
2023-05-14T04:18:38.995Z,24.24
2023-05-14T04:21:10.953Z,24.32
2023-05-14T04:23:40.204Z,24.47
2023-05-14T04:26:12.112Z,24.47
2023-05-14T04:28:41.136Z,24.34
2023-05-14T04:31:10.193Z,24.57
2023-05-14T04:33:42.115Z,24.44
2023-05-14T04:36:18.802Z,24.42
2023-05-14T04:38:48.016Z,24.32
2023-05-14T04:41:17.194Z,24.41
2023-05-14T04:43:46.270Z,24.30
2023-05-14T04:46:15.539Z,24.53
2023-05-14T04:48:44.685Z,24.44
2023-05-14T04:51:22.385Z,24.40
2023-05-14T04:53:56.925Z,24.54
2023-05-14T04:56:26.185Z,24.41
2023-05-14T04:58:55.207Z,24.31
2023-05-14T05:01:28.110Z,24.32
2023-05-14T05:04:03.100Z,24.31
2023-05-14T05:06:33.349Z,24.38
2023-05-14T05:09:03.790Z,24.34
2023-05-14T05:11:32.776Z,24.27
2023-05-14T05:14:01.737Z,24.42
2023-05-14T05:16:30.861Z,24.35
2023-05-14T05:18:59.935Z,24.39
2023-05-14T05:21:28.976Z,24.39
2023-05-14T05:23:58.032Z,24.31
2023-05-14T05:26:30.206Z,24.39
2023-05-14T05:28:59.206Z,24.38
2023-05-14T05:31:28.257Z,24.32
2023-05-14T05:33:57.562Z,24.48
2023-05-14T05:36:27.066Z,24.52
2023-05-14T05:39:01.467Z,24.48
2023-05-14T05:41:31.665Z,24.35
2023-05-14T05:44:00.851Z,24.54
2023-05-14T05:46:34.215Z,24.43
2023-05-14T05:49:05.995Z,24.47
2023-05-14T05:51:37.585Z,24.33
2023-05-14T05:54:07.772Z,24.29
2023-05-14T05:56:36.812Z,24.45
2023-05-14T05:59:10.726Z,24.59
2023-05-14T06:01:39.819Z,24.41
2023-05-14T06:04:09.026Z,24.43
2023-05-14T06:06:38.112Z,24.35
2023-05-14T06:09:11.430Z,24.67
2023-05-14T06:11:40.409Z,24.76
2023-05-14T06:14:09.411Z,24.62
2023-05-14T06:16:38.535Z,24.41
2023-05-14T06:19:08.164Z,24.38
2023-05-14T06:21:37.282Z,24.28
2023-05-14T06:24:06.614Z,24.41
2023-05-14T06:26:37.823Z,24.38
2023-05-14T06:29:06.804Z,24.21
2023-05-14T06:31:35.833Z,24.22
2023-05-14T06:34:05.212Z,24.33
2023-05-14T06:36:37.321Z,24.28
2023-05-14T06:39:06.814Z,24.24
2023-05-14T06:41:35.896Z,24.09
2023-05-14T06:44:05.224Z,24.13
2023-05-14T06:46:37.271Z,24.51
2023-05-14T06:49:09.334Z,24.22
2023-05-14T06:51:38.364Z,24.17
2023-05-14T06:54:07.350Z,24.45
2023-05-14T06:56:36.578Z,24.34
2023-05-14T06:59:05.592Z,24.28
2023-05-14T07:01:34.696Z,24.25
2023-05-14T07:04:07.252Z,24.19
2023-05-14T07:06:36.365Z,24.17
2023-05-14T07:09:08.230Z,24.22
2023-05-14T07:11:37.370Z,24.17
2023-05-14T07:14:06.325Z,24.06
2023-05-14T07:16:35.429Z,24.08
2023-05-14T07:19:06.501Z,24.06
2023-05-14T07:21:35.757Z,24.06
2023-05-14T07:24:06.159Z,24.06
2023-05-14T07:26:35.204Z,24.15
2023-05-14T07:29:04.317Z,24.13
2023-05-14T07:31:35.974Z,24.36
2023-05-14T07:34:05.565Z,24.00
2023-05-14T07:36:34.656Z,24.14
2023-05-14T07:39:06.765Z,24.14
2023-05-14T07:41:38.370Z,24.00
2023-05-14T07:44:07.423Z,23.94
2023-05-14T07:46:39.182Z,24.01
2023-05-14T07:49:08.154Z,24.21
2023-05-14T07:51:38.076Z,23.94
2023-05-14T07:54:07.224Z,24.14
2023-05-14T07:56:36.278Z,23.93
2023-05-14T07:59:05.487Z,23.81
2023-05-14T08:01:34.599Z,23.90
2023-05-14T08:04:03.960Z,23.88
2023-05-14T08:06:35.598Z,23.89
2023-05-14T08:09:06.913Z,23.83
2023-05-14T08:11:36.079Z,23.86
2023-05-14T08:14:05.274Z,23.91
2023-05-14T08:16:34.389Z,23.83
2023-05-14T08:19:03.441Z,23.78
2023-05-14T08:21:35.872Z,23.83
2023-05-14T08:24:16.210Z,23.73
2023-05-14T08:26:45.526Z,23.80
2023-05-14T08:29:16.265Z,23.76
2023-05-14T08:31:50.940Z,23.69
2023-05-14T08:34:22.395Z,23.71
2023-05-14T08:36:54.170Z,23.64
2023-05-14T08:39:26.344Z,23.62
2023-05-14T08:42:00.527Z,23.55
2023-05-14T08:44:34.287Z,23.64
2023-05-14T08:47:03.275Z,23.78
2023-05-14T08:49:44.808Z,23.53
2023-05-14T08:52:14.124Z,23.58
2023-05-14T08:54:43.158Z,23.58
2023-05-14T08:57:12.436Z,23.54
2023-05-14T08:59:41.432Z,23.43
2023-05-14T09:02:15.252Z,23.39
2023-05-14T09:04:44.327Z,23.35
2023-05-14T09:07:13.504Z,23.31
2023-05-14T09:09:42.967Z,23.29
2023-05-14T09:12:12.074Z,23.29
2023-05-14T09:14:41.128Z,23.20
2023-05-14T09:17:10.124Z,23.25
2023-05-14T09:19:40.665Z,23.23
2023-05-14T09:22:18.125Z,23.16
2023-05-14T09:24:47.733Z,23.19
2023-05-14T09:27:25.010Z,23.15
2023-05-14T09:29:55.237Z,23.15
2023-05-14T09:32:24.629Z,23.11
2023-05-14T09:34:54.540Z,23.10
2023-05-14T09:37:26.506Z,23.15
2023-05-14T09:39:58.322Z,23.02
2023-05-14T09:42:27.829Z,23.03
2023-05-14T09:44:56.900Z,23.05
2023-05-14T09:47:26.178Z,23.02
2023-05-14T09:49:55.842Z,23.03
2023-05-14T09:52:28.266Z,23.01
2023-05-14T09:54:57.323Z,23.05
2023-05-14T09:57:29.775Z,23.00
2023-05-14T09:59:58.729Z,23.03
2023-05-14T10:02:28.611Z,23.01
2023-05-14T10:05:00.376Z,22.98
2023-05-14T10:07:33.704Z,23.00
2023-05-14T10:10:04.471Z,22.96
2023-05-14T10:12:35.947Z,22.94
2023-05-14T10:15:22.974Z,22.87
2023-05-14T10:17:54.546Z,22.81
2023-05-14T10:20:23.868Z,22.87
2023-05-14T10:22:55.207Z,22.73
2023-05-14T10:25:27.033Z,22.69
2023-05-14T10:27:56.113Z,22.73
2023-05-14T10:30:25.931Z,22.70
2023-05-14T10:33:11.246Z,22.68
2023-05-14T10:35:58.729Z,22.64
2023-05-14T10:38:31.564Z,22.57
2023-05-14T10:41:05.248Z,22.55
2023-05-14T10:43:37.990Z,22.54
2023-05-14T10:46:18.850Z,22.44
2023-05-14T10:48:47.865Z,22.32
2023-05-14T10:51:18.986Z,22.37
2023-05-14T10:53:47.960Z,22.39
2023-05-14T10:56:16.997Z,22.39
2023-05-14T10:58:48.963Z,22.31
2023-05-14T11:01:18.061Z,22.30
2023-05-14T11:03:47.848Z,22.29
2023-05-14T11:06:17.443Z,22.27
2023-05-14T11:08:47.891Z,22.21
2023-05-14T11:11:17.016Z,22.17
2023-05-14T11:13:52.036Z,22.14
2023-05-14T11:16:30.770Z,22.18
2023-05-14T11:19:04.915Z,22.18
2023-05-14T11:21:36.938Z,22.10
2023-05-14T11:24:09.866Z,22.00
2023-05-14T11:26:39.102Z,21.99
2023-05-14T11:29:14.206Z,21.95
2023-05-14T11:31:45.602Z,21.94
2023-05-14T11:34:17.223Z,21.90
2023-05-14T11:36:49.670Z,21.89
2023-05-14T11:39:24.507Z,21.80
2023-05-14T11:41:56.504Z,21.80
2023-05-14T11:44:28.289Z,21.72
2023-05-14T11:46:58.665Z,21.74
2023-05-14T11:49:27.822Z,21.80
2023-05-14T11:52:10.503Z,21.77
2023-05-14T11:54:39.561Z,21.74
2023-05-14T11:57:15.684Z,21.72
2023-05-14T11:59:44.712Z,21.70
2023-05-14T12:02:17.707Z,21.69
2023-05-14T12:04:57.496Z,21.57
2023-05-14T12:07:26.491Z,21.52
2023-05-14T12:09:56.247Z,21.49
2023-05-14T12:12:30.786Z,21.49
2023-05-14T12:15:01.944Z,21.50
2023-05-14T12:17:35.712Z,21.47
2023-05-14T12:20:05.659Z,21.36
2023-05-14T12:22:36.844Z,21.32
2023-05-14T12:25:06.425Z,21.28
2023-05-14T12:27:38.880Z,21.28
2023-05-14T12:32:43.337Z,21.26
2023-05-14T12:35:12.513Z,21.25
2023-05-14T12:37:41.577Z,21.15
2023-05-14T12:40:13.654Z,21.16
2023-05-14T12:42:42.890Z,21.09
2023-05-14T12:45:15.266Z,21.01
2023-05-14T12:47:44.290Z,20.99
2023-05-14T12:50:13.897Z,21.04
2023-05-14T12:52:43.226Z,21.01
2023-05-14T12:55:12.566Z,21.02
2023-05-14T12:57:47.165Z,21.03
2023-05-14T13:00:17.163Z,21.02
2023-05-14T13:02:49.029Z,20.94
2023-05-14T13:05:20.949Z,20.96
2023-05-14T13:07:56.415Z,20.98
2023-05-14T13:10:25.452Z,20.94
2023-05-14T13:12:54.554Z,20.81
2023-05-14T13:15:23.975Z,20.80
2023-05-14T13:17:55.183Z,20.80
2023-05-14T13:20:31.499Z,20.85
2023-05-14T13:23:09.455Z,20.79
2023-05-14T13:25:38.590Z,20.79
2023-05-14T13:28:07.563Z,20.75
2023-05-14T13:30:36.725Z,20.70
2023-05-14T13:33:06.383Z,20.70
2023-05-14T13:35:36.159Z,20.61
2023-05-14T13:38:05.180Z,20.62
2023-05-14T13:40:34.302Z,20.59
2023-05-14T13:43:03.430Z,20.60
2023-05-14T13:45:32.466Z,20.58
2023-05-14T13:48:01.744Z,20.56
2023-05-14T13:50:30.888Z,20.55
2023-05-14T13:52:59.881Z,20.56
2023-05-14T13:55:28.866Z,20.52
2023-05-14T13:57:57.924Z,20.54
2023-05-14T14:00:28.712Z,20.54
2023-05-14T14:02:57.741Z,20.47
2023-05-14T14:05:29.989Z,20.40
2023-05-14T14:08:01.055Z,20.44
2023-05-14T14:10:43.994Z,20.43
2023-05-14T14:13:13.031Z,20.33
2023-05-14T14:15:44.928Z,20.38
2023-05-14T14:18:17.156Z,20.43
2023-05-14T14:20:46.223Z,20.41
2023-05-14T14:23:15.284Z,20.40
2023-05-14T14:25:44.319Z,20.37
2023-05-14T14:28:16.674Z,20.31
2023-05-14T14:30:45.817Z,20.30
2023-05-14T14:33:14.975Z,20.29
2023-05-14T14:35:46.038Z,20.23
2023-05-14T14:38:17.789Z,20.21
2023-05-14T14:40:47.684Z,20.18
2023-05-14T14:43:16.613Z,20.21
2023-05-14T14:45:49.497Z,20.18
2023-05-14T14:48:27.810Z,20.13
2023-05-14T14:50:57.394Z,20.10
2023-05-14T14:53:26.677Z,20.07
2023-05-14T14:55:57.877Z,20.02
2023-05-14T14:58:27.568Z,19.97
2023-05-14T15:00:57.332Z,19.99
2023-05-14T15:03:27.047Z,20.02
2023-05-14T15:05:56.175Z,20.01
2023-05-14T15:08:27.368Z,19.98
2023-05-14T15:10:59.380Z,20.02
2023-05-14T15:13:28.623Z,19.95
2023-05-14T15:15:57.594Z,20.02
2023-05-14T15:18:27.297Z,20.04
2023-05-14T15:20:56.314Z,19.95
2023-05-14T15:23:28.128Z,19.95
2023-05-14T15:25:57.333Z,19.93
2023-05-14T15:28:26.324Z,19.87
2023-05-14T15:30:55.814Z,19.85
2023-05-14T15:33:28.024Z,19.95
2023-05-14T15:35:57.001Z,19.87
2023-05-14T15:38:26.027Z,19.86
2023-05-14T15:40:55.270Z,19.91
2023-05-14T15:43:24.516Z,19.82
2023-05-14T15:45:53.595Z,19.82
2023-05-14T15:48:25.436Z,19.86
2023-05-14T15:50:54.927Z,19.88
2023-05-14T15:53:24.018Z,19.80
2023-05-14T15:55:56.377Z,19.70
2023-05-14T15:58:34.336Z,19.74
2023-05-14T16:01:04.654Z,19.64
2023-05-14T16:03:36.839Z,19.63
2023-05-14T16:06:06.019Z,19.61
2023-05-14T16:08:38.148Z,19.64
2023-05-14T16:11:07.834Z,19.65
2023-05-14T16:13:39.210Z,19.67
2023-05-14T16:16:08.301Z,19.56
2023-05-14T16:18:37.347Z,19.50
2023-05-14T16:21:06.394Z,19.55
2023-05-14T16:23:35.476Z,19.52
2023-05-14T16:26:04.610Z,19.59
2023-05-14T16:28:33.729Z,19.55
2023-05-14T16:31:03.684Z,19.58
2023-05-14T16:33:33.019Z,19.55
2023-05-14T16:36:04.100Z,19.50
2023-05-14T16:38:33.164Z,19.58
2023-05-14T16:41:02.230Z,19.56
2023-05-14T16:43:33.851Z,19.49
2023-05-14T16:46:02.894Z,19.54
2023-05-14T16:48:32.202Z,19.51
2023-05-14T16:51:11.300Z,19.50
2023-05-14T16:53:40.330Z,19.49
2023-05-14T16:56:09.426Z,19.41
2023-05-14T16:58:38.458Z,19.42
2023-05-14T17:01:12.631Z,19.33
2023-05-14T17:03:42.017Z,19.36
2023-05-14T17:06:11.766Z,19.33
2023-05-14T17:08:46.619Z,19.25
2023-05-14T17:11:15.665Z,19.26
2023-05-14T17:13:44.670Z,19.26
2023-05-14T17:16:13.850Z,19.24
2023-05-14T17:18:42.882Z,19.21
2023-05-14T17:21:11.876Z,19.21
2023-05-14T17:23:40.964Z,19.17
2023-05-14T17:26:10.214Z,19.17
2023-05-14T17:28:39.720Z,19.07
2023-05-14T17:31:08.732Z,19.10
2023-05-14T17:33:37.848Z,19.20
2023-05-14T17:36:07.049Z,19.09
2023-05-14T17:38:36.301Z,19.12
2023-05-14T17:41:08.184Z,19.12
2023-05-14T17:43:37.295Z,19.09
2023-05-14T17:46:06.754Z,19.06
2023-05-14T17:48:35.798Z,19.05
2023-05-14T17:51:04.820Z,19.03
2023-05-14T17:53:42.512Z,19.01
2023-05-14T17:56:14.288Z,18.99
2023-05-14T17:58:46.094Z,19.01
2023-05-14T18:01:15.051Z,19.02
2023-05-14T18:03:44.375Z,18.98
2023-05-14T18:06:15.449Z,19.02
2023-05-14T18:08:44.461Z,18.92
2023-05-14T18:11:16.207Z,18.98
2023-05-14T18:13:45.186Z,18.96
2023-05-14T18:16:16.938Z,18.96
2023-05-14T18:18:46.010Z,18.99
2023-05-14T18:21:15.174Z,18.97
2023-05-14T18:23:44.219Z,18.95
2023-05-14T18:26:13.351Z,18.93
2023-05-14T18:28:42.347Z,18.86
2023-05-14T18:31:14.335Z,18.85
2023-05-14T18:33:43.313Z,18.83
2023-05-14T18:36:12.493Z,18.83
2023-05-14T18:38:42.416Z,18.77
2023-05-14T18:41:11.462Z,18.82
2023-05-14T18:43:40.612Z,18.72
2023-05-14T18:46:09.844Z,18.72
2023-05-14T18:48:44.838Z,18.68
2023-05-14T18:51:17.123Z,18.63
2023-05-14T18:53:46.162Z,18.65
2023-05-14T18:56:15.217Z,18.68
2023-05-14T18:58:44.153Z,18.62
2023-05-14T19:01:13.246Z,18.58
2023-05-14T19:03:43.537Z,18.60
2023-05-14T19:06:12.591Z,18.62
2023-05-14T19:08:44.660Z,18.66
2023-05-14T19:11:13.704Z,18.55
2023-05-14T19:13:42.757Z,18.60
2023-05-14T19:16:12.744Z,18.60
2023-05-14T19:18:41.844Z,18.62
2023-05-14T19:21:13.573Z,18.63
2023-05-14T19:23:45.467Z,18.64
2023-05-14T19:26:14.478Z,18.54
2023-05-14T19:28:43.459Z,18.58
2023-05-14T19:31:12.869Z,18.55
2023-05-14T19:33:44.695Z,18.60
2023-05-14T19:36:13.797Z,18.61
2023-05-14T19:38:42.756Z,18.61
2023-05-14T19:41:12.061Z,18.53
2023-05-14T19:43:43.835Z,18.56
2023-05-14T19:46:13.366Z,18.54
2023-05-14T19:48:45.458Z,18.56
2023-05-14T19:51:17.289Z,18.60
2023-05-14T19:53:46.813Z,18.59
2023-05-14T19:56:16.025Z,18.57
2023-05-14T19:58:45.811Z,18.49
2023-05-14T20:01:14.905Z,18.39
2023-05-14T20:03:44.002Z,18.36
2023-05-14T20:06:18.087Z,18.22
2023-05-14T20:08:47.202Z,18.18
2023-05-14T20:11:17.258Z,18.30
2023-05-14T20:13:46.570Z,18.26
2023-05-14T20:16:18.395Z,18.13
2023-05-14T20:18:47.832Z,18.11
2023-05-14T20:21:16.925Z,18.13
2023-05-14T20:23:45.894Z,18.18
2023-05-14T20:26:15.105Z,18.27
2023-05-14T20:28:45.035Z,18.19
2023-05-14T20:31:14.139Z,18.17
2023-05-14T20:33:43.236Z,18.17
2023-05-14T20:36:12.260Z,17.97
2023-05-14T20:38:43.157Z,18.01
2023-05-14T20:41:12.166Z,17.92
2023-05-14T20:43:43.314Z,17.91
2023-05-14T20:46:12.370Z,17.99
2023-05-14T20:48:50.379Z,18.04
2023-05-14T20:51:28.623Z,18.25
2023-05-14T20:54:05.278Z,18.22
2023-05-14T20:56:48.411Z,18.39
2023-05-14T20:59:20.264Z,18.68
2023-05-14T21:01:49.360Z,18.67
2023-05-14T21:04:21.758Z,18.65
2023-05-14T21:06:56.973Z,18.66
2023-05-14T21:09:26.062Z,18.60
2023-05-14T21:12:06.798Z,18.66
2023-05-14T21:14:36.147Z,18.74
2023-05-14T21:17:07.163Z,18.66
2023-05-14T21:19:42.508Z,18.80
2023-05-14T21:22:11.548Z,18.84
2023-05-14T21:24:43.639Z,19.03
2023-05-14T21:27:15.706Z,19.12
2023-05-14T21:29:47.972Z,19.16
2023-05-14T21:32:17.087Z,19.23
2023-05-14T21:34:59.516Z,19.26
2023-05-14T21:37:31.612Z,19.26
2023-05-14T21:40:00.797Z,19.24
2023-05-14T21:42:38.677Z,19.32
2023-05-14T21:45:13.104Z,19.32
2023-05-14T21:47:45.018Z,19.39
2023-05-14T21:50:18.523Z,19.45
2023-05-14T21:52:50.814Z,19.59
2023-05-14T21:55:28.141Z,19.93
2023-05-14T21:58:00.180Z,19.89
2023-05-14T22:00:29.681Z,19.89
2023-05-14T22:02:58.779Z,19.82
2023-05-14T22:05:28.227Z,20.01
2023-05-14T22:07:57.369Z,19.97
2023-05-14T22:10:29.458Z,20.21
2023-05-14T22:13:00.470Z,20.62
2023-05-14T22:15:29.557Z,20.86
2023-05-14T22:18:10.305Z,21.16
2023-05-14T22:20:39.557Z,21.56
2023-05-14T22:23:08.851Z,21.77
2023-05-14T22:25:37.871Z,21.95
2023-05-14T22:28:07.014Z,21.99
2023-05-14T22:30:41.461Z,22.01
2023-05-14T22:33:18.881Z,22.16
2023-05-14T22:35:50.832Z,22.21
2023-05-14T22:38:28.598Z,22.29
2023-05-14T22:41:00.994Z,22.46
2023-05-14T22:43:30.176Z,22.53
2023-05-14T22:45:59.212Z,22.66
2023-05-14T22:48:39.827Z,22.69
2023-05-14T22:54:14.567Z,22.75
2023-05-14T22:56:46.360Z,22.79
2023-05-14T22:59:16.300Z,22.83
2023-05-14T23:01:56.576Z,22.98
2023-05-14T23:04:34.716Z,23.10
2023-05-14T23:07:10.351Z,23.15
2023-05-14T23:09:42.056Z,23.20
2023-05-14T23:12:31.180Z,23.24
2023-05-14T23:15:19.732Z,23.32
2023-05-14T23:17:50.926Z,23.33
2023-05-14T23:20:20.001Z,23.47
2023-05-14T23:22:52.212Z,23.11
2023-05-14T23:25:21.339Z,23.23
2023-05-14T23:27:51.576Z,23.32
2023-05-14T23:30:26.440Z,23.35
2023-05-14T23:32:55.904Z,23.37
2023-05-14T23:35:31.293Z,23.34
2023-05-14T23:38:06.679Z,23.39
2023-05-14T23:40:36.004Z,23.50
2023-05-14T23:43:05.461Z,23.50
2023-05-14T23:45:37.476Z,23.51
2023-05-14T23:48:09.518Z,23.57
2023-05-14T23:50:42.039Z,23.51
2023-05-14T23:53:11.502Z,23.52
2023-05-14T23:55:43.536Z,23.65
2023-05-14T23:58:15.498Z,23.57
